EW6785 Weather Reports


Display with metric or nautical units.
time (UTC)temp
F
wind
direction
speed
MPH
gust
MPH
rain 1hr
in
rain 24hr
in
rain mn
in
humidity
%
barometer
mb
20201101003126 43 146 0.0 2.0 0.00 0.00 0.00 80 1023.4
20201101001641 43 146 0.0 2.0 0.00 0.00 0.00 79 1023.6
20201101000144 44 146 0.0 0.0 0.00 0.00 0.00 78 1023.7
20201031234754 45 146 0.0 0.0 0.00 0.00 0.00 74 1023.7
20201031233108 46 146 0.0 1.0 0.00 0.00 0.00 70 1023.8
20201031231617 47 146 0.0 1.0 0.00 0.00 0.00 68 1023.8
20201031230217 49 146 0.0 1.0 0.00 0.00 0.00 65 1024.0
20201031224613 50 146 0.0 0.0 0.00 0.00 0.00 63 1024.1
20201031223114 51 146 0.0 1.0 0.00 0.00 0.00 59 1024.3
20201031221637 53 148 0.0 2.0 0.00 0.00 0.00 56 1024.4
20201031220147 53 186 2.0 6.0 0.00 0.00 0.00 53 1024.7
20201031214640 53 220 2.0 11.0 0.00 0.00 0.00 53 1025.0
20201031213133 53 233 1.0 6.0 0.00 0.00 0.00 53 1025.3
20201031211554 53 211 5.0 11.0 0.00 0.00 0.00 50 1025.4
20201031210109 54 223 3.0 8.0 0.00 0.00 0.00 50 1025.5
20201031204646 54 228 3.0 12.0 0.00 0.00 0.00 49 1025.6
20201031203115 54 186 2.0 10.0 0.00 0.00 0.00 51 1025.8
20201031201537 55 204 4.0 8.0 0.00 0.00 0.00 50 1026.1
20201031200034 55 236 4.0 7.0 0.00 0.00 0.00 52 1026.2
20201031194550 54 243 3.0 10.0 0.00 0.00 0.00 51 1026.7
20201031193035 54 146 1.0 7.0 0.00 0.00 0.00 52 1026.9
20201031191532 55 237 2.0 5.0 0.00 0.00 0.00 53 1027.2
20201031190138 54 214 3.0 10.0 0.00 0.00 0.00 53 1027.5
20201031184525 53 223 0.0 8.0 0.00 0.00 0.00 57 1027.7
20201031183028 52 217 1.0 8.0 0.00 0.00 0.00 57 1027.9
20201031181520 52 243 3.0 9.0 0.00 0.00 0.00 56 1028.3
20201031180019 51 126 2.0 7.0 0.00 0.00 0.00 58 1028.8
20201031174727 50 188 5.0 12.0 0.00 0.00 0.00 56 1029.2
20201031173142 50 189 4.0 9.0 0.00 0.00 0.00 57 1029.6
20201031171741 49 189 3.0 9.0 0.00 0.00 0.00 60 1029.8
20201031170149 49 323 2.0 9.0 0.00 0.00 0.00 58 1030.0
20201031164709 50 162 1.0 5.0 0.00 0.00 0.00 59 1030.4
20201031163200 49 101 3.0 7.0 0.00 0.00 0.00 60 1030.7
20201031161702 47 131 2.0 8.0 0.00 0.00 0.00 61 1031.0
20201031160207 47 114 2.0 8.0 0.00 0.00 0.00 63 1031.1
20201031154627 46 107 1.0 8.0 0.00 0.00 0.00 63 1031.1
20201031153142 45 152 4.0 10.0 0.00 0.00 0.00 65 1031.2
20201031151759 45 89 3.0 9.0 0.00 0.00 0.00 66 1031.5
20201031150057 44 220 4.0 8.0 0.00 0.00 0.00 67 1031.8
20201031144550 43 165 1.0 9.0 0.00 0.00 0.00 69 1032.0
20201031143059 41 202 2.0 9.0 0.00 0.00 0.00 72 1032.0
20201031141535 40 147 1.0 9.0 0.00 0.00 0.00 76 1032.1
20201031140031 39 242 2.0 5.0 0.00 0.00 0.00 81 1032.0
20201031134526 37 225 1.0 7.0 0.00 0.00 0.00 88 1031.8
20201031133037 35 93 1.0 7.0 0.00 0.00 0.00 94 1031.9
20201031131533 32 116 1.0 5.0 0.00 0.00 0.00 94 1031.9
20201031130025 30 106 0.0 2.0 0.00 0.00 0.00 94 1031.9
20201031124531 29 79 0.0 1.0 0.00 0.00 0.00 94 1031.8
20201031123043 29 79 0.0 0.0 0.00 0.00 0.00 93 1031.8
20201031121516 29 79 0.0 2.0 0.00 0.00 0.00 93 1031.7
20201031120023 29 78 0.0 0.0 0.00 0.00 0.00 93 1031.6
20201031114519 29 78 0.0 0.0 0.00 0.00 0.00 93 1031.6
20201031113024 29 78 0.0 0.0 0.00 0.00 0.00 93 1031.5
20201031111704 29 78 0.0 0.0 0.00 0.00 0.00 92 1031.4
20201031110131 29 78 0.0 0.0 0.00 0.00 0.00 92 1031.3
20201031104644 30 78 0.0 1.0 0.00 0.00 0.00 92 1031.1
20201031103136 30 78 0.0 0.0 0.00 0.00 0.00 92 1031.0
20201031101859 30 78 0.0 1.0 0.00 0.00 0.00 92 1031.0
20201031100159 30 78 0.0 0.0 0.00 0.00 0.00 91 1030.6
20201031094616 30 78 0.0 0.0 0.00 0.00 0.00 91 1030.5
20201031093155 30 78 0.0 1.0 0.00 0.00 0.00 90 1030.4
20201031091703 30 78 0.0 0.0 0.00 0.00 0.00 90 1030.3
20201031090100 30 78 0.0 2.0 0.00 0.00 0.00 90 1030.2
20201031084626 30 133 0.0 0.0 0.00 0.00 0.00 89 1030.2
20201031083123 31 133 0.0 1.0 0.00 0.00 0.00 89 1030.2
20201031081625 31 133 0.0 1.0 0.00 0.00 0.00 89 1030.2
20201031080115 31 133 0.0 1.0 0.00 0.00 0.00 88 1030.2
20201031074553 31 136 0.0 1.0 0.00 0.00 0.00 88 1030.1
20201031073047 32 136 0.0 1.0 0.00 0.00 0.00 87 1030.2
20201031071746 32 136 0.0 1.0 0.00 0.00 0.00 86 1030.1
20201031070050 33 136 0.0 1.0 0.00 0.00 0.00 85 1030.1
20201031064631 34 136 0.0 0.0 0.00 0.01 0.00 84 1030.1
20201031063035 34 136 0.0 2.0 0.00 0.01 0.00 82 1030.0
20201031061545 34 145 0.0 2.0 0.00 0.01 0.00 82 1029.9
20201031060029 35 121 0.0 4.0 0.00 0.01 0.00 82 1029.7
20201031054547 35 86 1.0 3.0 0.00 0.01 0.00 80 1029.6
20201031053119 35 93 1.0 4.0 0.00 0.01 0.00 81 1029.7
20201031051553 35 86 0.0 2.0 0.00 0.01 0.00 83 1029.7
20201031050042 35 83 0.0 2.0 0.00 0.01 0.00 82 1029.7
20201031044534 36 119 0.0 2.0 0.00 0.01 0.00 82 1029.7
20201031043038 36 61 0.0 1.0 0.00 0.01 0.00 82 1029.7
20201031041537 36 114 0.0 2.0 0.00 0.01 0.00 84 1029.7
20201031034522 36 98 0.0 4.0 0.00 0.01 0.01 82 1029.6
20201031033136 36 128 0.0 0.0 0.00 0.01 0.01 84 1029.5
20201031031740 36 72 0.0 0.0 0.00 0.01 0.01 83 1029.3
20201031030215 36 63 0.0 0.0 0.00 0.01 0.01 81 1029.1
20201031024747 37 57 0.0 0.0 0.00 0.03 0.01 82 1029.0
20201031023149 37 57 0.0 0.0 0.00 0.03 0.01 80 1028.8
20201031021709 37 57 0.0 0.0 0.00 0.03 0.01 75 1028.5
20201031020131 38 57 0.0 0.0 0.00 0.03 0.01 74 1028.3
20201031014625 39 57 0.0 0.0 0.00 0.05 0.01 72 1028.3
20201031013103 39 57 0.0 1.0 0.00 0.05 0.01 71 1028.1
20201031011753 40 57 0.0 2.0 0.00 0.05 0.01 67 1028.0
20201031010150 40 36 0.0 4.0 0.00 0.05 0.01 65 1028.1
20201031004628 41 37 0.0 2.0 0.00 0.09 0.01 64 1027.8